createdAt,value
2019-02-27T00:01:33.291Z,21.23
2019-02-27T00:04:03.083Z,19.57
2019-02-27T00:06:32.408Z,18.83
2019-02-27T00:09:01.836Z,20.73
2019-02-27T00:11:31.219Z,19.57
2019-02-27T00:14:00.676Z,24.23
2019-02-27T00:16:30.063Z,22.10
2019-02-27T00:18:59.458Z,28.07
2019-02-27T00:21:28.857Z,18.37
2019-02-27T00:23:58.240Z,20.13
2019-02-27T00:26:27.660Z,19.83
2019-02-27T00:28:57.082Z,24.63
2019-02-27T00:31:26.476Z,20.83
2019-02-27T00:33:59.460Z,19.73
2019-02-27T00:36:26.898Z,18.47
2019-02-27T00:38:57.944Z,19.17
2019-02-27T00:41:27.256Z,18.40
2019-02-27T00:44:01.101Z,20.17
2019-02-27T00:46:27.700Z,19.60
2019-02-27T00:48:59.360Z,22.67
2019-02-27T00:51:28.224Z,20.13
2019-02-27T00:53:58.308Z,20.17
2019-02-27T00:56:28.288Z,21.67
2019-02-27T00:58:59.921Z,19.93
2019-02-27T01:01:28.995Z,27.10
2019-02-27T01:04:00.982Z,26.50
2019-02-27T01:06:29.520Z,20.27
2019-02-27T01:08:58.994Z,25.77
2019-02-27T01:11:28.427Z,25.83
2019-02-27T01:13:57.789Z,23.57
2019-02-27T01:16:27.222Z,23.37
2019-02-27T01:18:56.615Z,19.77
2019-02-27T01:21:26.023Z,23.33
2019-02-27T01:23:55.421Z,21.30
2019-02-27T01:26:24.807Z,21.50
2019-02-27T01:28:54.222Z,25.27
2019-02-27T01:31:24.028Z,17.53
2019-02-27T01:33:53.897Z,21.97
2019-02-27T01:36:24.625Z,24.50
2019-02-27T01:38:54.327Z,25.43
2019-02-27T01:41:24.590Z,24.30
2019-02-27T01:43:54.507Z,25.13
2019-02-27T01:46:25.181Z,22.47
2019-02-27T01:48:54.945Z,18.87
2019-02-27T01:51:25.779Z,19.50
2019-02-27T01:53:55.767Z,22.53
2019-02-27T01:56:28.843Z,23.07
2019-02-27T01:58:56.215Z,18.67
2019-02-27T02:01:29.863Z,17.43
2019-02-27T02:03:57.143Z,19.27
2019-02-27T02:06:26.619Z,18.33
2019-02-27T02:09:36.732Z,16.57
2019-02-27T02:12:27.574Z,21.73
2019-02-27T02:15:19.143Z,21.67
2019-02-27T02:18:30.631Z,18.67
2019-02-27T02:21:40.624Z,18.83
2019-02-27T02:24:46.630Z,16.07
2019-02-27T02:27:45.187Z,18.03
2019-02-27T02:31:05.039Z,16.80
2019-02-27T02:34:05.043Z,15.33
2019-02-27T02:37:19.043Z,19.17
2019-02-27T02:40:47.635Z,20.03
2019-02-27T02:44:11.659Z,21.80
2019-02-27T02:47:19.521Z,15.27
2019-02-27T02:50:28.459Z,15.97
2019-02-27T02:53:15.769Z,13.97
2019-02-27T02:56:24.798Z,14.30
2019-02-27T02:59:47.684Z,15.70
2019-02-27T03:02:41.671Z,14.70
2019-02-27T03:05:24.283Z,13.63
2019-02-27T03:08:37.287Z,16.83
2019-02-27T03:11:54.234Z,15.13
2019-02-27T03:14:29.297Z,14.73
2019-02-27T03:17:57.753Z,15.20
2019-02-27T03:21:06.235Z,16.17
2019-02-27T03:24:11.483Z,15.73
2019-02-27T03:27:21.705Z,18.77
2019-02-27T03:29:59.387Z,14.30
2019-02-27T03:32:46.689Z,15.70
2019-02-27T03:35:40.859Z,15.87
2019-02-27T03:39:03.652Z,13.93
2019-02-27T03:42:18.616Z,14.90
2019-02-27T03:45:23.400Z,15.57
2019-02-27T03:48:12.047Z,15.00
2019-02-27T03:50:53.412Z,15.10
2019-02-27T03:53:33.865Z,14.60
2019-02-27T03:56:44.793Z,13.83
2019-02-27T03:59:43.802Z,14.37
2019-02-27T04:03:16.927Z,12.47
2019-02-27T04:06:34.757Z,14.07
2019-02-27T04:09:07.523Z,12.67
2019-02-27T04:11:41.507Z,14.70
2019-02-27T04:14:29.063Z,15.47
2019-02-27T04:17:05.177Z,13.97
2019-02-27T04:19:29.506Z,14.90
2019-02-27T04:22:01.128Z,16.00
2019-02-27T04:24:29.964Z,15.10
2019-02-27T04:26:59.340Z,20.83
2019-02-27T04:29:28.743Z,21.73
2019-02-27T04:31:58.118Z,16.30
2019-02-27T04:34:27.535Z,12.87
2019-02-27T04:36:56.937Z,14.83
2019-02-27T04:39:26.660Z,16.00
2019-02-27T04:41:56.055Z,15.07
2019-02-27T04:44:25.440Z,13.50
2019-02-27T04:46:55.551Z,12.97
2019-02-27T04:49:24.928Z,15.50
2019-02-27T04:51:54.360Z,14.80
2019-02-27T04:54:23.743Z,17.27
2019-02-27T04:56:55.010Z,15.87
2019-02-27T04:59:24.180Z,16.40
2019-02-27T05:01:53.607Z,24.07
2019-02-27T05:04:23.004Z,17.87
2019-02-27T05:06:52.443Z,16.93
2019-02-27T05:09:21.847Z,16.17
2019-02-27T05:11:51.288Z,16.77
2019-02-27T05:14:20.683Z,21.67
2019-02-27T05:16:50.196Z,14.30
2019-02-27T05:19:19.571Z,14.93
2019-02-27T05:21:52.263Z,10.73
2019-02-27T05:24:19.996Z,14.30
2019-02-27T05:26:49.387Z,16.67
2019-02-27T05:29:18.779Z,19.70
2019-02-27T05:31:52.862Z,14.60
2019-02-27T05:34:19.253Z,18.20
2019-02-27T05:36:48.630Z,14.67
2019-02-27T05:39:18.055Z,16.67
2019-02-27T05:41:47.428Z,15.47
2019-02-27T05:44:21.418Z,12.47
2019-02-27T05:46:47.833Z,15.97
2019-02-27T05:49:17.241Z,18.73
2019-02-27T05:51:46.651Z,18.83
2019-02-27T05:54:16.051Z,20.23
2019-02-27T05:56:49.364Z,13.20
2019-02-27T05:59:16.852Z,17.10
2019-02-27T06:01:46.231Z,15.03
2019-02-27T06:04:15.599Z,21.40
2019-02-27T06:06:45.664Z,15.00
2019-02-27T06:09:15.228Z,14.17
2019-02-27T06:11:44.679Z,16.03
2019-02-27T06:14:14.101Z,18.87
2019-02-27T06:16:43.467Z,14.27
2019-02-27T06:19:12.875Z,15.87
2019-02-27T06:21:42.275Z,15.40
2019-02-27T06:24:12.496Z,10.00
2019-02-27T06:26:42.165Z,14.27
2019-02-27T06:29:11.539Z,13.90
2019-02-27T06:31:40.923Z,18.73
2019-02-27T06:34:10.327Z,18.53
2019-02-27T06:36:42.885Z,14.70
2019-02-27T06:39:10.781Z,10.77
2019-02-27T06:41:40.164Z,15.23
2019-02-27T06:44:09.583Z,18.07
2019-02-27T06:46:38.960Z,14.00
2019-02-27T06:49:08.356Z,17.27
2019-02-27T06:51:37.743Z,20.13
2019-02-27T06:54:07.155Z,19.27
2019-02-27T06:56:36.574Z,16.40
2019-02-27T06:59:06.045Z,15.30
2019-02-27T07:01:35.358Z,14.03
2019-02-27T07:04:05.404Z,15.57
2019-02-27T07:06:36.806Z,15.27
2019-02-27T07:09:11.368Z,21.03
2019-02-27T07:11:38.659Z,19.27
2019-02-27T07:14:08.087Z,17.60
2019-02-27T07:16:37.485Z,20.87
2019-02-27T07:19:06.952Z,14.90
2019-02-27T07:21:36.326Z,20.63
2019-02-27T07:24:05.707Z,18.83
2019-02-27T07:26:35.111Z,19.33
2019-02-27T07:29:04.495Z,22.90
2019-02-27T07:31:33.942Z,22.13
2019-02-27T07:34:03.320Z,17.00
2019-02-27T07:36:33.036Z,22.93
2019-02-27T07:39:02.431Z,22.97
2019-02-27T07:41:31.840Z,17.63
2019-02-27T07:44:01.261Z,20.20
2019-02-27T07:46:30.920Z,18.30
2019-02-27T07:49:01.560Z,17.33
2019-02-27T07:51:30.938Z,16.50
2019-02-27T07:54:00.332Z,18.57
2019-02-27T07:56:29.767Z,20.70
2019-02-27T07:58:59.151Z,17.27
2019-02-27T08:01:28.580Z,17.90
2019-02-27T08:03:57.944Z,19.43
2019-02-27T08:06:27.379Z,18.60
2019-02-27T08:08:57.760Z,22.80
2019-02-27T08:11:27.584Z,23.60
2019-02-27T08:13:56.968Z,25.10
2019-02-27T08:16:26.363Z,22.30
2019-02-27T08:18:55.778Z,17.97
2019-02-27T08:21:25.505Z,21.40
2019-02-27T08:23:55.291Z,21.70
2019-02-27T08:26:24.675Z,19.47
2019-02-27T08:28:54.035Z,17.00
2019-02-27T08:31:27.951Z,17.70
2019-02-27T08:33:54.503Z,15.00
2019-02-27T08:36:24.284Z,20.90
2019-02-27T08:38:53.653Z,13.80
2019-02-27T08:41:23.048Z,19.13
2019-02-27T08:43:52.459Z,30.40
2019-02-27T08:46:22.179Z,15.03
2019-02-27T08:48:51.671Z,25.43
2019-02-27T08:51:21.055Z,16.43
2019-02-27T08:53:50.436Z,16.33
2019-02-27T08:56:19.851Z,22.47
2019-02-27T08:58:49.251Z,19.37
2019-02-27T09:01:19.078Z,17.67
2019-02-27T09:03:49.680Z,16.57
2019-02-27T09:06:19.107Z,28.63
2019-02-27T09:08:48.555Z,30.53
2019-02-27T09:11:17.984Z,22.90
2019-02-27T09:13:47.411Z,16.37
2019-02-27T09:16:16.776Z,22.03
2019-02-27T09:18:46.184Z,18.07
2019-02-27T09:21:17.178Z,19.63
2019-02-27T09:23:46.716Z,31.73
2019-02-27T09:26:16.096Z,14.23
2019-02-27T09:28:45.492Z,21.13
2019-02-27T09:31:14.888Z,17.57
2019-02-27T09:33:44.287Z,18.73
2019-02-27T09:36:13.783Z,16.60
2019-02-27T09:38:45.106Z,17.07
2019-02-27T09:41:14.187Z,15.27
2019-02-27T09:43:43.631Z,17.20
2019-02-27T09:46:13.016Z,20.17
2019-02-27T09:48:42.436Z,16.93
2019-02-27T09:51:11.843Z,17.10
2019-02-27T09:53:41.223Z,19.17
2019-02-27T09:56:11.652Z,14.37
2019-02-27T09:58:45.255Z,13.53
2019-02-27T10:01:16.897Z,15.47
2019-02-27T10:03:46.355Z,18.27
2019-02-27T10:06:15.760Z,13.70
2019-02-27T10:08:45.232Z,15.07
2019-02-27T10:11:18.834Z,16.97
2019-02-27T10:13:45.739Z,16.00
2019-02-27T10:16:15.134Z,14.07
2019-02-27T10:18:44.513Z,16.00
2019-02-27T10:21:14.051Z,14.37
2019-02-27T10:23:43.442Z,15.50
2019-02-27T10:26:12.827Z,15.33
2019-02-27T10:28:43.973Z,12.40
2019-02-27T10:31:13.435Z,12.93
2019-02-27T10:33:43.673Z,13.33
2019-02-27T10:36:13.020Z,14.53
2019-02-27T10:38:42.403Z,13.07
2019-02-27T10:41:11.811Z,13.83
2019-02-27T10:43:41.193Z,13.03
2019-02-27T10:46:10.625Z,12.13
2019-02-27T10:48:40.016Z,11.43
2019-02-27T10:58:35.618Z,13.03
2019-02-27T11:01:05.288Z,11.68
2019-02-27T11:03:34.683Z,10.15
2019-02-27T11:06:04.329Z,10.55
2019-02-27T11:08:33.823Z,12.40
2019-02-27T11:11:03.536Z,11.53
2019-02-27T11:13:32.961Z,10.15
2019-02-27T11:16:02.372Z,9.93
2019-02-27T11:18:31.779Z,8.70
2019-02-27T11:21:01.164Z,11.63
2019-02-27T11:23:30.571Z,10.27
2019-02-27T11:25:59.967Z,14.23
2019-02-27T11:28:29.427Z,10.13
2019-02-27T11:30:58.828Z,12.20
2019-02-27T11:33:32.767Z,12.83
2019-02-27T11:35:59.296Z,13.22
2019-02-27T11:38:28.676Z,10.80
2019-02-27T11:40:58.068Z,13.30
2019-02-27T11:43:27.485Z,10.07
2019-02-27T11:45:58.139Z,11.95
2019-02-27T11:48:27.992Z,9.83
2019-02-27T11:50:57.408Z,9.28
2019-02-27T11:53:26.835Z,13.75
2019-02-27T11:55:56.215Z,11.57
2019-02-27T11:58:25.595Z,16.17
2019-02-27T12:00:55.029Z,17.95
2019-02-27T12:03:24.419Z,10.48
2019-02-27T12:05:53.852Z,13.50
2019-02-27T12:08:25.825Z,13.93
2019-02-27T12:10:54.327Z,9.03
2019-02-27T12:13:23.739Z,13.72
2019-02-27T12:15:53.109Z,14.30
2019-02-27T12:18:23.637Z,15.50
2019-02-27T12:20:53.945Z,12.13
2019-02-27T12:23:23.506Z,9.38
2019-02-27T12:25:52.925Z,10.68
2019-02-27T12:28:23.003Z,11.38
2019-02-27T12:30:52.415Z,11.88
2019-02-27T12:33:21.791Z,10.60
2019-02-27T12:35:51.163Z,8.23
2019-02-27T12:38:20.587Z,8.18
2019-02-27T12:40:50.070Z,7.58
2019-02-27T12:43:19.484Z,8.93
2019-02-27T12:45:48.864Z,9.33
2019-02-27T12:48:18.279Z,11.85
2019-02-27T12:50:47.659Z,7.20
2019-02-27T12:53:20.711Z,8.65
2019-02-27T12:55:48.231Z,8.00
2019-02-27T12:58:18.390Z,8.18
2019-02-27T13:00:47.797Z,9.33
2019-02-27T13:03:17.180Z,8.63
2019-02-27T13:05:46.591Z,10.48
2019-02-27T13:08:16.323Z,10.03
2019-02-27T13:10:48.605Z,10.78
2019-02-27T13:13:18.092Z,9.58
2019-02-27T13:15:47.479Z,12.18
2019-02-27T13:18:16.873Z,8.05
2019-02-27T13:20:46.343Z,8.88
2019-02-27T13:23:15.823Z,9.55
2019-02-27T13:25:45.195Z,11.48
2019-02-27T13:28:15.540Z,10.70
2019-02-27T13:30:44.984Z,9.55
2019-02-27T13:33:14.367Z,10.72
2019-02-27T13:35:43.756Z,9.08
2019-02-27T13:38:17.739Z,7.60
2019-02-27T13:40:44.199Z,9.58
2019-02-27T13:43:13.573Z,8.48
2019-02-27T13:45:47.373Z,15.40
2019-02-27T13:48:14.034Z,9.13
2019-02-27T13:50:43.420Z,9.93
2019-02-27T13:53:12.854Z,12.05
2019-02-27T13:55:42.227Z,11.08
2019-02-27T13:58:11.646Z,8.15
2019-02-27T14:00:41.032Z,6.53
2019-02-27T14:03:12.694Z,8.00
2019-02-27T14:05:41.488Z,9.10
2019-02-27T14:08:10.893Z,5.50
2019-02-27T14:10:40.319Z,8.88
2019-02-27T14:13:10.017Z,6.15
2019-02-27T14:15:39.376Z,6.25
2019-02-27T14:18:08.774Z,9.28
2019-02-27T14:20:38.171Z,10.13
2019-02-27T14:23:08.148Z,11.90
2019-02-27T14:25:37.539Z,7.40
2019-02-27T14:28:07.307Z,13.70
2019-02-27T14:30:39.505Z,5.67
2019-02-27T14:33:10.882Z,7.75
2019-02-27T14:35:39.948Z,8.65
2019-02-27T14:38:09.320Z,7.00
2019-02-27T14:40:41.173Z,7.85
2019-02-27T14:43:10.210Z,7.10
2019-02-27T14:45:40.897Z,5.80
2019-02-27T14:48:10.424Z,12.00
2019-02-27T14:50:39.798Z,12.23
2019-02-27T14:53:09.201Z,8.43
2019-02-27T14:55:38.579Z,8.10
2019-02-27T14:58:07.991Z,8.78
2019-02-27T15:00:41.026Z,9.90
2019-02-27T15:03:09.655Z,14.50
2019-02-27T15:05:43.185Z,6.58
2019-02-27T15:08:10.078Z,9.05
2019-02-27T15:10:41.135Z,11.38
2019-02-27T15:13:10.893Z,5.83
2019-02-27T15:15:43.309Z,10.90
2019-02-27T15:18:11.311Z,9.70
2019-02-27T15:20:41.282Z,14.03
2019-02-27T15:23:10.746Z,10.75
2019-02-27T15:25:43.078Z,10.75
2019-02-27T15:28:11.211Z,10.48
2019-02-27T15:30:40.613Z,17.50
2019-02-27T15:33:10.055Z,12.20
2019-02-27T15:35:39.435Z,12.68
2019-02-27T15:38:11.758Z,10.85
2019-02-27T15:40:40.239Z,10.08
2019-02-27T15:43:11.419Z,10.75
2019-02-27T15:45:47.258Z,14.15
2019-02-27T15:48:11.804Z,9.23
2019-02-27T15:50:41.264Z,9.78
2019-02-27T15:53:14.764Z,12.30
2019-02-27T15:55:42.023Z,17.80
2019-02-27T15:58:11.441Z,10.30
2019-02-27T16:00:41.112Z,10.95
2019-02-27T16:03:11.735Z,13.72
2019-02-27T16:05:41.478Z,10.65
2019-02-27T16:08:10.901Z,7.10
2019-02-27T16:10:43.732Z,13.32
2019-02-27T16:13:11.486Z,7.08
2019-02-27T16:15:40.898Z,9.48
2019-02-27T16:18:10.567Z,9.00
2019-02-27T16:20:39.880Z,12.33
2019-02-27T16:23:09.314Z,10.20
2019-02-27T16:25:38.711Z,17.40
2019-02-27T16:28:11.139Z,10.70
2019-02-27T16:30:39.075Z,8.43
2019-02-27T16:33:08.456Z,11.55
2019-02-27T16:35:41.671Z,9.58
2019-02-27T16:38:08.947Z,12.23
2019-02-27T16:40:38.389Z,10.00
2019-02-27T16:43:10.392Z,47.05
2019-02-27T16:45:38.942Z,20.80
2019-02-27T16:48:08.376Z,13.60
2019-02-27T16:50:38.105Z,14.55
2019-02-27T16:53:07.576Z,10.75
2019-02-27T16:55:38.059Z,20.23
2019-02-27T16:58:08.037Z,14.70
2019-02-27T17:00:38.235Z,16.40
2019-02-27T17:03:12.935Z,24.92
2019-02-27T17:05:40.329Z,25.72
2019-02-27T17:08:10.025Z,16.63
2019-02-27T17:10:39.448Z,28.15
2019-02-27T17:13:08.873Z,19.02
2019-02-27T17:15:39.949Z,17.85
2019-02-27T17:18:09.536Z,23.97
2019-02-27T17:20:39.226Z,25.40
2019-02-27T17:23:10.880Z,22.87
2019-02-27T17:25:39.717Z,12.23
2019-02-27T17:28:09.192Z,26.13
2019-02-27T17:30:38.709Z,19.07
2019-02-27T17:33:08.167Z,22.80
2019-02-27T17:35:37.656Z,24.98
2019-02-27T17:38:07.067Z,21.60
2019-02-27T17:40:37.616Z,19.03
2019-02-27T17:43:07.220Z,29.95
2019-02-27T17:45:36.611Z,36.88
2019-02-27T17:48:06.062Z,21.33
2019-02-27T17:50:35.518Z,25.10
2019-02-27T17:53:04.962Z,25.27
2019-02-27T17:55:34.703Z,26.03
2019-02-27T17:58:04.104Z,19.30
2019-02-27T18:00:36.719Z,19.93
2019-02-27T18:03:06.150Z,20.40
2019-02-27T18:05:35.595Z,22.10
2019-02-27T18:08:05.195Z,24.02
2019-02-27T18:10:37.466Z,30.87
2019-02-27T18:13:05.760Z,22.53
2019-02-27T18:15:35.189Z,26.20
2019-02-27T18:18:07.179Z,21.70
2019-02-27T18:20:35.604Z,19.47
2019-02-27T18:23:05.038Z,24.97
2019-02-27T18:25:34.767Z,22.43
2019-02-27T18:28:04.179Z,13.20
2019-02-27T18:30:33.605Z,23.53
2019-02-27T18:33:03.055Z,20.43
2019-02-27T18:35:32.434Z,22.33
2019-02-27T18:38:01.848Z,30.87
2019-02-27T18:40:31.279Z,26.70
2019-02-27T18:43:01.037Z,23.37
2019-02-27T18:45:30.463Z,23.67
2019-02-27T18:47:59.832Z,34.50
2019-02-27T18:50:29.251Z,24.20
2019-02-27T18:52:58.640Z,25.07
2019-02-27T18:55:30.744Z,18.53
2019-02-27T18:57:59.120Z,21.33
2019-02-27T19:00:29.478Z,26.73
2019-02-27T19:02:59.065Z,21.90
2019-02-27T19:05:28.554Z,24.47
2019-02-27T19:07:57.941Z,20.90
2019-02-27T19:10:27.464Z,16.77
2019-02-27T19:13:00.185Z,22.80
2019-02-27T19:15:28.147Z,21.00
2019-02-27T19:17:57.633Z,19.77
2019-02-27T19:20:28.205Z,18.73
2019-02-27T19:22:57.912Z,26.60
2019-02-27T19:25:27.607Z,28.23
2019-02-27T19:27:57.233Z,25.43
2019-02-27T19:30:27.269Z,22.37
2019-02-27T19:33:01.574Z,22.13
2019-02-27T19:35:27.704Z,24.83
2019-02-27T19:37:57.092Z,27.03
2019-02-27T19:40:29.911Z,18.93
2019-02-27T19:42:59.691Z,29.77
2019-02-27T19:45:29.339Z,28.97
2019-02-27T19:47:58.825Z,27.57
2019-02-27T19:50:28.295Z,28.13
2019-02-27T19:53:03.278Z,26.63
2019-02-27T19:55:29.580Z,30.17
2019-02-27T19:57:59.074Z,22.57
2019-02-27T20:00:33.799Z,20.87
2019-02-27T20:03:01.523Z,22.53
2019-02-27T20:05:30.931Z,27.37
2019-02-27T20:08:02.475Z,24.67
2019-02-27T20:10:33.211Z,22.47
2019-02-27T20:13:02.853Z,24.20
2019-02-27T20:15:32.381Z,24.13
2019-02-27T20:18:02.076Z,18.67
2019-02-27T20:20:31.819Z,22.77
2019-02-27T20:23:01.236Z,19.57
2019-02-27T20:25:32.795Z,23.07
2019-02-27T20:28:01.970Z,21.40
2019-02-27T20:30:31.460Z,23.60
2019-02-27T20:33:02.582Z,24.90
2019-02-27T20:35:31.884Z,30.23
2019-02-27T20:38:01.701Z,20.67
2019-02-27T20:40:34.172Z,24.43
2019-02-27T20:43:02.416Z,24.47
2019-02-27T20:45:32.099Z,23.20
2019-02-27T20:48:02.046Z,33.23
2019-02-27T20:50:35.297Z,25.33
2019-02-27T20:53:05.466Z,29.47
2019-02-27T20:55:35.195Z,24.33
2019-02-27T20:58:04.702Z,21.30
2019-02-27T21:00:36.542Z,29.03
2019-02-27T21:03:05.944Z,38.93
2019-02-27T21:05:35.421Z,30.67
2019-02-27T21:08:04.804Z,26.17
2019-02-27T21:10:34.211Z,27.47
2019-02-27T21:13:03.610Z,28.57
2019-02-27T21:15:33.561Z,23.60
2019-02-27T21:18:03.251Z,30.53
2019-02-27T21:20:33.329Z,25.83
2019-02-27T21:23:02.773Z,23.93
2019-02-27T21:25:32.162Z,27.30
2019-02-27T21:28:06.587Z,23.40
2019-02-27T21:30:32.609Z,24.67
2019-02-27T21:33:02.051Z,30.47
2019-02-27T21:35:31.448Z,26.37
2019-02-27T21:38:00.862Z,23.87
2019-02-27T21:40:30.241Z,20.97
2019-02-27T21:42:59.894Z,28.50
2019-02-27T21:45:29.314Z,24.93
2019-02-27T21:47:58.699Z,23.10
2019-02-27T21:50:28.115Z,24.80
2019-02-27T21:52:57.514Z,20.87
2019-02-27T21:55:26.919Z,21.83
2019-02-27T21:57:58.069Z,22.53
2019-02-27T22:00:27.979Z,26.67
2019-02-27T22:02:57.365Z,23.63
2019-02-27T22:05:26.889Z,26.10
2019-02-27T22:07:56.264Z,24.23
2019-02-27T22:10:25.687Z,26.33
2019-02-27T22:12:55.085Z,25.77
2019-02-27T22:15:28.035Z,34.83
2019-02-27T22:17:57.485Z,28.83
2019-02-27T22:20:27.025Z,26.20
2019-02-27T22:22:56.488Z,24.23
2019-02-27T22:25:30.170Z,34.50
2019-02-27T22:27:58.468Z,27.07
2019-02-27T22:30:28.231Z,20.50
2019-02-27T22:32:57.643Z,22.83
2019-02-27T22:35:27.355Z,24.67
2019-02-27T22:37:56.748Z,23.23
2019-02-27T22:40:26.171Z,20.67
2019-02-27T22:42:55.557Z,23.40
2019-02-27T22:45:24.973Z,19.90
2019-02-27T22:47:54.698Z,19.37
2019-02-27T22:50:24.185Z,18.40
2019-02-27T22:52:54.605Z,26.73
2019-02-27T22:55:24.755Z,22.53
2019-02-27T22:57:54.868Z,19.53
2019-02-27T23:01:14.841Z,22.17
2019-02-27T23:03:47.849Z,19.67
2019-02-27T23:06:17.262Z,25.03
2019-02-27T23:08:46.857Z,21.77
2019-02-27T23:11:16.349Z,17.07
2019-02-27T23:13:48.428Z,20.87
2019-02-27T23:16:18.899Z,19.43
2019-02-27T23:18:48.687Z,22.37
2019-02-27T23:21:18.099Z,17.63
2019-02-27T23:23:47.810Z,18.90
2019-02-27T23:26:19.862Z,17.00
2019-02-27T23:28:48.216Z,19.97
2019-02-27T23:31:22.354Z,21.03
2019-02-27T23:33:48.671Z,18.17
2019-02-27T23:36:18.250Z,15.80
2019-02-27T23:38:47.632Z,20.40
2019-02-27T23:41:17.076Z,22.33
2019-02-27T23:43:46.479Z,29.00
2019-02-27T23:46:18.505Z,21.40
2019-02-27T23:48:46.927Z,24.63
2019-02-27T23:51:16.979Z,18.83
2019-02-27T23:53:46.445Z,23.67
2019-02-27T23:56:19.327Z,15.77
2019-02-27T23:58:47.028Z,19.20
